• Join FlightAware (Why Join?)
  • Login
  • US Flag 
02:25AM EDT


 

Airport Tracker/Info


-or-


 

Live Flight TrackerFlight Track Log ✈ KAL1241 ✈ 15-May-2012 ✈ RKSS / GMP - RKPC / CJU

Flight Track Log - Related Links

Times and Time Zones

All times are in EDT time to prevent confusion due to time zone crossing. See the KAL1241 flight status page for this flight to view local times or setup timezone preferences in your user account.

Time Position Orientation Groundspeed Altitude Reporting Facility
EDT Latitude Longitude Course Direction KTS MPH feet Rate Location/Type
02:37AM 36.3741 126.7003 183° South  Level Estimated
02:38AM 36.2978 126.6946 183° South  Level Estimated
02:39AM 36.2216 126.6889 183° South  Level Estimated
02:40AM 36.1454 126.6832 183° South  Level Estimated
02:41AM 36.0691 126.6776 183° South  Level Estimated
02:42AM 35.9929 126.6719 183° South  Level Estimated
02:43AM 35.9166 126.6662 183° South  Level Estimated
02:44AM 35.8404 126.6606 183° South  Level Estimated
02:45AM 35.7641 126.6549 183° South  Level Estimated
02:46AM 35.6879 126.6493 183° South  Level Estimated
02:47AM 35.6117 126.6437 183° South  Level Estimated
02:48AM 35.5354 126.6381 183° South  Level Estimated
02:49AM 35.4592 126.6325 183° South  Level Estimated
02:50AM 35.3829 126.6269 183° South  Level Estimated
02:51AM 35.3067 126.6213 183° South  Level Estimated
02:52AM 35.2304 126.6158 183° South  Level Estimated
02:53AM 35.1542 126.6102 183° South  Level Estimated
02:54AM 35.0780 126.6047 183° South  Level Estimated
02:55AM 35.0017 126.5991 183° South  Level Estimated
02:56AM 34.9255 126.5936 183° South  Level Estimated
02:57AM 34.8492 126.5881 183° South  Level Estimated
02:58AM 34.7730 126.5826 183° South  Level Estimated
02:59AM 34.6967 126.5771 183° South  Level Estimated
03:00AM 34.6190 126.5715 183° South  Level Estimated
03:01AM 34.5413 126.5660 183° South  Level Estimated
03:02AM 34.4636 126.5604 183° South  Level Estimated
03:03AM 34.3859 126.5548 183° South  Level Estimated
03:04AM 34.3082 126.5493 183° South  Level Estimated
03:05AM 34.2304 126.5438 183° South  Level Estimated
03:06AM 34.1527 126.5382 183° South  Level Estimated
03:07AM 34.0750 126.5327 183° South  Level Estimated
03:08AM 33.9973 126.5272 183° South  Level Estimated
03:09AM 33.9196 126.5217 183° South  Level Estimated
03:10AM 33.8419 126.5162 183° South  Level Estimated
03:11AM 33.7641 126.5108 183° South  Level Estimated
03:12AM 33.6864 126.5053 183° South  Level Estimated
03:13AM 33.6087 126.4998 183° South  Level Estimated
03:14AM 33.5310 126.4944 183° South  Level Estimated
03:15AM 33.4533 126.4890 North  Level Estimated
03:16AM 33.5310 126.4944 183° South  Level Estimated
03:17AM 33.4533 126.4890 North  Level Estimated
03:18AM 33.5310 126.4944 183° South  Level Estimated
03:19AM 33.4533 126.4890 North  Level Estimated
03:20AM 33.5310 126.4944 183° South  Level Estimated
03:21AM 33.4533 126.4890 North  Level Estimated
03:22AM 33.5310 126.4944 183° South  Level Estimated
03:23AM 33.4533 126.4890 North  Level Estimated
03:24AM 33.5310 126.4944 183° South  Level Estimated
03:25AM 33.4533 126.4890 North  Level Estimated
03:26AM 33.5310 126.4944 183° South  Level Estimated
03:27AM 33.4533 126.4890 North  Level Estimated
03:28AM 33.5310 126.4944 183° South  Level Estimated
03:29AM 33.4533 126.4890 183° South  Level Estimated